createdAt,value
2019-02-21T02:26:40.921Z,86.78
2019-02-21T02:29:12.504Z,86.34
2019-02-21T02:31:44.130Z,86.60
2019-02-21T02:34:15.762Z,86.66
2019-02-21T02:36:47.141Z,86.99
2019-02-21T02:39:18.711Z,87.15
2019-02-21T02:41:50.089Z,87.25
2019-02-21T02:44:21.574Z,87.43
2019-02-21T02:46:52.804Z,87.40
2019-02-21T02:49:24.666Z,87.47
2019-02-21T02:51:56.594Z,87.42
2019-02-21T02:54:28.048Z,87.42
2019-02-21T02:56:59.682Z,87.24
2019-02-21T02:59:40.267Z,86.99
2019-02-21T03:02:04.586Z,86.21
2019-02-21T03:04:35.901Z,86.78
2019-02-21T03:07:07.442Z,89.08
2019-02-21T03:09:38.830Z,87.83
2019-02-21T03:12:10.223Z,86.98
2019-02-21T03:14:41.730Z,86.19
2019-02-21T03:17:13.248Z,86.41
2019-02-21T03:19:44.598Z,86.36
2019-02-21T03:22:15.954Z,86.76
2019-02-21T03:24:47.412Z,87.10
2019-02-21T03:27:18.677Z,87.89
2019-02-21T03:29:50.933Z,88.17
2019-02-21T03:32:22.401Z,88.52
2019-02-21T03:34:53.880Z,88.71
2019-02-21T03:37:25.453Z,88.91
2019-02-21T03:39:56.979Z,89.09
2019-02-21T03:42:28.442Z,89.19
2019-02-21T03:45:00.098Z,88.73
2019-02-21T03:47:31.748Z,87.48
2019-02-21T03:50:03.129Z,87.73
2019-02-21T03:52:34.505Z,88.61
2019-02-21T03:55:06.266Z,88.72
2019-02-21T03:57:38.435Z,88.75
2019-02-21T04:00:10.451Z,88.68
2019-02-21T04:03:01.052Z,89.14
2019-02-21T04:05:32.622Z,89.08
2019-02-21T04:08:04.289Z,89.22
2019-02-21T04:10:35.624Z,89.21
2019-02-21T04:13:21.660Z,89.06
2019-02-21T04:16:09.533Z,89.05
2019-02-21T04:18:42.665Z,89.05
2019-02-21T04:21:14.162Z,88.72
2019-02-21T04:23:45.987Z,88.68
2019-02-21T04:26:17.419Z,88.55
2019-02-21T04:28:48.834Z,88.92
2019-02-21T04:31:20.174Z,88.97
2019-02-21T04:33:51.757Z,89.64
2019-02-21T04:36:24.506Z,89.36
2019-02-21T04:38:55.830Z,90.90
2019-02-21T04:41:27.649Z,88.73
2019-02-21T04:43:59.155Z,88.94
2019-02-21T04:46:30.563Z,89.75
2019-02-21T04:49:02.084Z,89.42
2019-02-21T04:51:33.875Z,89.16
2019-02-21T04:54:05.695Z,89.45
2019-02-21T04:56:37.523Z,89.51
2019-02-21T04:59:09.297Z,89.67
2019-02-21T05:01:40.701Z,89.69
2019-02-21T05:04:12.163Z,89.91
2019-02-21T05:06:43.599Z,89.89
2019-02-21T05:09:15.207Z,89.98
2019-02-21T05:11:46.582Z,90.52
2019-02-21T05:14:18.306Z,90.70
2019-02-21T05:16:49.645Z,90.22
2019-02-21T05:19:21.132Z,89.55
2019-02-21T05:21:52.862Z,89.70
2019-02-21T05:24:24.401Z,90.27
2019-02-21T05:27:01.405Z,90.07
2019-02-21T05:29:32.790Z,90.21
2019-02-21T05:32:11.410Z,90.41
2019-02-21T05:35:01.220Z,90.76
2019-02-21T05:37:50.672Z,90.88
2019-02-21T05:40:34.830Z,90.81
2019-02-21T05:43:40.443Z,90.89
2019-02-21T05:46:39.373Z,90.83
2019-02-21T05:49:30.078Z,90.41
2019-02-21T05:52:09.735Z,90.24
2019-02-21T05:55:12.146Z,90.42
2019-02-21T05:58:05.268Z,91.07
2019-02-21T06:00:56.322Z,91.12
2019-02-21T06:03:59.019Z,90.87
2019-02-21T06:07:09.847Z,91.10
2019-02-21T06:09:59.001Z,91.30
2019-02-21T06:12:38.460Z,91.66
2019-02-21T06:15:41.289Z,91.74
2019-02-21T06:18:21.948Z,91.82
2019-02-21T06:21:11.321Z,91.78
2019-02-21T06:24:02.867Z,91.74
2019-02-21T06:26:53.315Z,91.69
2019-02-21T06:29:36.383Z,92.21
2019-02-21T06:32:14.274Z,92.41
2019-02-21T06:34:41.083Z,92.51
2019-02-21T06:37:12.784Z,92.15
2019-02-21T06:39:44.425Z,91.29
2019-02-21T06:42:15.823Z,91.51
2019-02-21T06:44:47.386Z,91.50
2019-02-21T06:47:19.205Z,91.33
2019-02-21T06:49:50.701Z,91.36
2019-02-21T06:52:22.539Z,91.24
2019-02-21T06:54:54.236Z,91.09
2019-02-21T06:57:25.630Z,91.48
2019-02-21T06:59:58.081Z,91.76
2019-02-21T07:02:29.967Z,91.24
2019-02-21T07:05:01.373Z,91.16
2019-02-21T07:07:33.023Z,90.17
2019-02-21T07:10:04.622Z,88.35
2019-02-21T07:12:36.235Z,87.64
2019-02-21T07:15:09.337Z,86.86
2019-02-21T07:17:48.876Z,84.52
2019-02-21T07:20:14.023Z,82.17
2019-02-21T07:22:45.602Z,79.43
2019-02-21T07:25:40.045Z,79.61
2019-02-21T07:28:15.613Z,79.76
2019-02-21T07:30:45.419Z,80.72
2019-02-21T07:33:27.838Z,79.40
2019-02-21T07:35:50.202Z,78.73
2019-02-21T07:38:21.867Z,77.44
2019-02-21T07:40:53.429Z,75.30
2019-02-21T07:43:25.092Z,74.68
2019-02-21T07:45:56.506Z,73.59
2019-02-21T07:48:28.005Z,73.06
2019-02-21T07:50:59.452Z,72.17
2019-02-21T07:53:31.182Z,70.94
2019-02-21T07:56:03.042Z,70.25
2019-02-21T07:58:34.812Z,70.02
2019-02-21T08:01:06.481Z,69.25
2019-02-21T08:03:44.306Z,69.91
2019-02-21T08:06:11.426Z,67.85
2019-02-21T08:08:44.916Z,66.92
2019-02-21T08:11:16.132Z,65.62
2019-02-21T08:13:47.738Z,66.63
2019-02-21T08:16:19.153Z,71.22
2019-02-21T08:18:50.713Z,73.47
2019-02-21T08:21:22.187Z,74.18
2019-02-21T08:23:53.983Z,76.68
2019-02-21T08:26:25.737Z,77.24
2019-02-21T08:28:57.141Z,78.26
2019-02-21T08:31:28.569Z,80.15
2019-02-21T08:34:22.075Z,80.33
2019-02-21T08:36:53.520Z,81.22
2019-02-21T08:39:24.961Z,80.94
2019-02-21T08:41:56.523Z,80.84
2019-02-21T08:44:28.912Z,80.57
2019-02-21T08:47:00.955Z,80.25
2019-02-21T08:49:32.696Z,79.87
2019-02-21T08:52:04.237Z,79.17
2019-02-21T08:54:35.788Z,79.84
2019-02-21T08:57:07.340Z,79.30
2019-02-21T08:59:38.828Z,79.38
2019-02-21T09:02:10.717Z,77.94
2019-02-21T09:04:42.945Z,78.34
2019-02-21T09:07:14.736Z,77.29
2019-02-21T09:09:46.539Z,77.36
2019-02-21T09:12:18.013Z,77.47
2019-02-21T09:14:49.390Z,76.79
2019-02-21T09:17:20.950Z,76.87
2019-02-21T09:19:52.515Z,76.86
2019-02-21T09:22:23.900Z,76.04
2019-02-21T09:24:55.373Z,77.41
2019-02-21T09:27:27.037Z,77.35
2019-02-21T09:29:58.421Z,77.79
2019-02-21T09:32:29.950Z,77.54
2019-02-21T09:35:01.739Z,76.24
2019-02-21T09:37:33.258Z,76.42
2019-02-21T09:40:05.172Z,76.69
2019-02-21T09:42:36.710Z,76.77
2019-02-21T09:45:16.766Z,76.91
2019-02-21T09:47:48.151Z,76.87
2019-02-21T09:50:20.587Z,76.39
2019-02-21T09:52:52.053Z,76.09
2019-02-21T09:55:23.520Z,75.56
2019-02-21T09:57:54.862Z,74.86
2019-02-21T10:00:26.722Z,74.75
2019-02-21T10:02:58.573Z,74.36
2019-02-21T10:05:30.059Z,74.31
2019-02-21T10:08:01.883Z,73.86
2019-02-21T10:10:33.190Z,73.69
2019-02-21T10:13:04.697Z,73.22
2019-02-21T10:15:36.076Z,73.85
2019-02-21T10:18:07.449Z,73.66
2019-02-21T10:20:38.989Z,73.11
2019-02-21T10:23:10.356Z,72.82
2019-02-21T10:25:41.855Z,69.45
2019-02-21T10:28:13.240Z,69.29
2019-02-21T10:30:44.647Z,70.12
2019-02-21T10:33:15.936Z,70.38
2019-02-21T10:35:47.357Z,72.28
2019-02-21T10:38:19.167Z,73.19
2019-02-21T10:40:50.609Z,72.72
2019-02-21T10:43:21.960Z,73.10
2019-02-21T10:45:53.542Z,72.38
2019-02-21T10:48:25.019Z,70.28
2019-02-21T10:50:56.498Z,69.22
2019-02-21T10:53:28.018Z,68.56
2019-02-21T10:55:59.516Z,68.25
2019-02-21T10:58:30.886Z,66.98
2019-02-21T11:01:02.463Z,66.50
2019-02-21T11:03:34.049Z,65.36
2019-02-21T11:06:05.843Z,64.49
2019-02-21T11:08:37.361Z,64.70
2019-02-21T11:11:09.045Z,65.23
2019-02-21T11:13:40.574Z,64.34
2019-02-21T11:16:12.071Z,63.07
2019-02-21T11:18:43.613Z,64.18
2019-02-21T11:21:15.066Z,62.13
2019-02-21T11:23:46.524Z,62.62
2019-02-21T11:26:18.577Z,63.32
2019-02-21T11:28:50.291Z,63.32
2019-02-21T11:31:21.887Z,63.41
2019-02-21T11:33:53.363Z,61.37
2019-02-21T11:36:24.874Z,56.73
2019-02-21T11:38:56.432Z,55.01
2019-02-21T11:41:28.008Z,53.77
2019-02-21T11:43:59.538Z,57.14
2019-02-21T11:46:31.563Z,55.74
2019-02-21T11:49:03.249Z,59.58
2019-02-21T11:51:35.069Z,60.83
2019-02-21T11:54:06.485Z,61.59
2019-02-21T11:56:37.927Z,63.21
2019-02-21T11:59:09.511Z,62.93
2019-02-21T12:01:41.121Z,62.86
2019-02-21T12:04:12.945Z,61.31
2019-02-21T12:06:47.700Z,60.88
2019-02-21T12:09:18.725Z,60.54
2019-02-21T12:11:50.234Z,61.23
2019-02-21T12:14:21.736Z,60.56
2019-02-21T12:16:53.390Z,60.54
2019-02-21T12:19:25.141Z,60.29
2019-02-21T12:21:59.280Z,61.38
2019-02-21T12:24:30.048Z,61.73
2019-02-21T12:27:01.590Z,62.96
2019-02-21T12:29:33.029Z,62.81
2019-02-21T12:32:04.652Z,63.11
2019-02-21T12:34:36.155Z,63.24
2019-02-21T12:37:07.689Z,63.52
2019-02-21T12:39:39.426Z,63.51
2019-02-21T12:42:11.261Z,64.26
2019-02-21T12:44:42.823Z,64.32
2019-02-21T12:47:14.370Z,64.43
2019-02-21T12:49:45.860Z,63.91
2019-02-21T12:52:17.291Z,64.38
2019-02-21T12:54:48.632Z,64.15
2019-02-21T12:57:20.464Z,64.60
2019-02-21T12:59:52.031Z,64.15
2019-02-21T13:02:23.498Z,64.07
2019-02-21T13:04:54.911Z,64.16
2019-02-21T13:07:27.756Z,64.10
2019-02-21T13:09:59.502Z,64.29
2019-02-21T13:12:31.017Z,64.01
2019-02-21T13:15:02.722Z,63.65
2019-02-21T13:17:34.798Z,64.08
2019-02-21T13:20:06.996Z,62.25
2019-02-21T13:22:38.400Z,62.57
2019-02-21T13:25:11.103Z,63.80
2019-02-21T13:27:42.816Z,63.30
2019-02-21T13:30:16.780Z,63.91
2019-02-21T13:32:48.284Z,64.48
2019-02-21T13:35:20.068Z,64.87
2019-02-21T13:37:51.601Z,65.11
2019-02-21T13:40:23.003Z,64.68
2019-02-21T13:42:54.420Z,64.97
2019-02-21T13:45:25.874Z,65.11
2019-02-21T13:47:57.386Z,65.16
2019-02-21T13:50:29.581Z,65.29
2019-02-21T13:53:01.084Z,65.22
2019-02-21T13:55:32.940Z,64.31
2019-02-21T13:58:04.690Z,63.20
2019-02-21T14:00:37.856Z,63.05
2019-02-21T14:03:09.608Z,64.14
2019-02-21T14:05:41.021Z,64.45
2019-02-21T14:08:12.580Z,64.88
2019-02-21T14:10:44.702Z,64.73
2019-02-21T14:13:17.344Z,64.37
2019-02-21T14:15:49.379Z,64.26
2019-02-21T14:18:20.934Z,64.77
2019-02-21T14:20:52.524Z,65.07
2019-02-21T14:23:23.989Z,65.08
2019-02-21T14:25:55.426Z,65.39
2019-02-21T14:28:26.861Z,65.28
2019-02-21T14:30:58.313Z,65.47
2019-02-21T14:33:30.337Z,65.22
2019-02-21T14:36:01.704Z,65.93
2019-02-21T14:38:33.260Z,66.04
2019-02-21T14:41:04.919Z,66.00
2019-02-21T14:43:36.366Z,65.99
2019-02-21T14:46:07.721Z,66.08
2019-02-21T14:48:39.243Z,65.99
2019-02-21T14:51:10.998Z,65.54
2019-02-21T14:53:42.506Z,65.46
2019-02-21T14:56:14.436Z,65.61
2019-02-21T14:58:45.987Z,65.29
2019-02-21T15:01:17.496Z,65.39
2019-02-21T15:03:49.018Z,65.42
2019-02-21T15:06:27.073Z,66.22
2019-02-21T15:08:54.078Z,66.53
2019-02-21T15:11:25.583Z,66.79
2019-02-21T15:13:57.403Z,66.95
2019-02-21T15:16:29.847Z,67.38
2019-02-21T15:19:01.201Z,68.02
2019-02-21T15:21:32.818Z,68.19
2019-02-21T15:24:04.656Z,68.56
2019-02-21T15:26:36.381Z,68.90
2019-02-21T15:29:09.355Z,69.26
2019-02-21T15:31:41.134Z,69.52
2019-02-21T15:34:13.760Z,69.19
2019-02-21T15:36:45.238Z,68.49
2019-02-21T15:39:17.022Z,67.69
2019-02-21T15:41:48.644Z,67.96
2019-02-21T15:44:20.518Z,67.94
2019-02-21T15:46:52.038Z,67.74
2019-02-21T15:49:23.765Z,67.86
2019-02-21T15:51:55.302Z,67.94
2019-02-21T15:54:26.749Z,67.97
2019-02-21T15:56:58.450Z,67.80
2019-02-21T15:59:29.788Z,68.22
2019-02-21T16:02:01.292Z,68.49
2019-02-21T16:04:35.352Z,68.53
2019-02-21T16:07:06.735Z,68.55
2019-02-21T16:09:38.228Z,69.03
2019-02-21T16:12:09.811Z,69.57
2019-02-21T16:14:41.257Z,70.16
2019-02-21T16:17:12.645Z,70.83
2019-02-21T16:19:44.179Z,71.07
2019-02-21T16:22:15.827Z,71.29
2019-02-21T16:24:48.084Z,71.62
2019-02-21T16:27:19.992Z,71.72
2019-02-21T16:29:51.353Z,72.06
2019-02-21T16:32:23.459Z,72.20
2019-02-21T16:34:54.985Z,72.59
2019-02-21T16:37:26.471Z,72.78
2019-02-21T16:39:57.929Z,73.01
2019-02-21T16:42:29.420Z,73.16
2019-02-21T16:45:00.750Z,73.52
2019-02-21T16:47:32.300Z,73.58
2019-02-21T16:50:03.663Z,73.73
2019-02-21T16:52:36.863Z,73.79
2019-02-21T16:55:12.713Z,74.01
2019-02-21T16:57:44.213Z,74.30
2019-02-21T17:00:17.285Z,74.64
2019-02-21T17:02:49.125Z,74.94
2019-02-21T17:05:20.649Z,75.14
2019-02-21T17:07:52.140Z,75.45
2019-02-21T17:10:23.706Z,76.09
2019-02-21T17:12:55.545Z,76.49
2019-02-21T17:15:27.454Z,76.85
2019-02-21T17:18:03.632Z,77.37
2019-02-21T17:20:35.538Z,77.77
2019-02-21T17:23:07.292Z,77.68
2019-02-21T17:25:38.746Z,77.67
2019-02-21T17:28:10.103Z,78.42
2019-02-21T17:30:41.852Z,78.84
2019-02-21T17:33:13.284Z,78.07
2019-02-21T17:35:44.806Z,78.45
2019-02-21T17:38:16.367Z,79.39
2019-02-21T17:40:48.024Z,79.64
2019-02-21T17:43:19.719Z,79.27
2019-02-21T17:45:51.858Z,78.60
2019-02-21T17:48:26.529Z,78.30
2019-02-21T17:50:58.157Z,78.04
2019-02-21T17:53:29.921Z,77.79
2019-02-21T17:56:01.428Z,77.58
2019-02-21T17:58:34.530Z,77.34
2019-02-21T18:01:06.501Z,77.25
2019-02-21T18:03:37.831Z,77.34
2019-02-21T18:06:09.301Z,77.45
2019-02-21T18:08:40.924Z,77.72
2019-02-21T18:11:12.693Z,78.03
2019-02-21T18:13:46.807Z,78.21
2019-02-21T18:16:18.602Z,78.42
2019-02-21T18:18:50.240Z,78.54
2019-02-21T18:21:21.724Z,78.52
2019-02-21T18:23:53.090Z,78.64
2019-02-21T18:26:25.650Z,78.99
2019-02-21T18:28:57.487Z,79.07
2019-02-21T18:31:29.053Z,79.64
2019-02-21T18:34:00.614Z,79.45
2019-02-21T18:36:32.100Z,79.50
2019-02-21T18:39:04.863Z,79.56
2019-02-21T18:41:38.024Z,79.61
2019-02-21T18:44:09.903Z,79.37
2019-02-21T18:46:41.690Z,79.16
2019-02-21T18:49:13.526Z,79.17
2019-02-21T18:51:45.274Z,78.79
2019-02-21T18:54:16.898Z,78.67
2019-02-21T18:56:48.234Z,78.56
2019-02-21T18:59:31.160Z,78.47
2019-02-21T19:01:54.018Z,78.33
2019-02-21T19:04:25.750Z,78.33
2019-02-21T19:06:57.288Z,78.22
2019-02-21T19:09:29.071Z,78.03
2019-02-21T19:12:01.143Z,78.08
2019-02-21T19:14:33.740Z,78.37
2019-02-21T19:17:05.673Z,78.52
2019-02-21T19:19:37.870Z,78.63
2019-02-21T19:22:12.247Z,78.55
2019-02-21T19:24:43.943Z,78.63
2019-02-21T19:27:15.570Z,78.57
2019-02-21T19:29:47.061Z,78.48
2019-02-21T19:32:23.647Z,78.43
2019-02-21T19:34:55.497Z,78.27
2019-02-21T19:37:27.002Z,78.18
2019-02-21T19:39:58.720Z,78.10
2019-02-21T19:42:30.109Z,78.05
2019-02-21T19:45:01.642Z,78.07
2019-02-21T19:47:33.556Z,78.04
2019-02-21T19:50:05.288Z,78.06
2019-02-21T19:52:37.341Z,78.26
2019-02-21T19:55:09.031Z,78.66
2019-02-21T19:57:40.570Z,79.24
2019-02-21T20:00:16.385Z,79.76
2019-02-21T20:02:47.980Z,80.22
2019-02-21T20:05:20.568Z,80.47
2019-02-21T20:08:07.620Z,80.48
2019-02-21T20:10:30.719Z,80.60
2019-02-21T20:13:03.706Z,80.63
2019-02-21T20:15:35.863Z,80.60
2019-02-21T20:18:07.495Z,80.90
2019-02-21T20:20:39.440Z,80.78
2019-02-21T20:23:10.853Z,80.79
2019-02-21T20:25:42.826Z,81.06
2019-02-21T20:28:14.354Z,81.16
2019-02-21T20:30:46.076Z,81.40
2019-02-21T20:33:17.682Z,81.08
2019-02-21T20:35:49.572Z,80.94
2019-02-21T20:38:31.598Z,81.27
2019-02-21T20:40:54.778Z,81.64
2019-02-21T20:43:26.255Z,81.93
2019-02-21T20:45:57.927Z,81.82
2019-02-21T20:48:30.606Z,81.95
2019-02-21T20:51:02.407Z,82.44
2019-02-21T20:53:34.188Z,82.75
2019-02-21T20:56:06.283Z,83.36
2019-02-21T20:58:38.973Z,83.07
2019-02-21T21:01:12.526Z,82.73
2019-02-21T21:03:44.292Z,82.41
2019-02-21T21:06:15.918Z,82.30
2019-02-21T21:08:47.335Z,82.64
2019-02-21T21:11:18.904Z,82.92
2019-02-21T21:13:50.368Z,83.49
2019-02-21T21:16:22.169Z,83.15
2019-02-21T21:18:53.437Z,83.11
2019-02-21T21:21:25.204Z,83.05
2019-02-21T21:23:56.784Z,82.51
2019-02-21T21:26:28.364Z,81.99
2019-02-21T21:28:59.878Z,81.43
2019-02-21T21:31:31.749Z,81.23
2019-02-21T21:34:03.273Z,80.97
2019-02-21T21:36:36.102Z,81.02
2019-02-21T21:39:07.747Z,81.07
2019-02-21T21:41:39.994Z,80.98
2019-02-21T21:44:11.795Z,80.88
2019-02-21T21:46:43.260Z,80.97
2019-02-21T21:49:14.921Z,80.99
2019-02-21T21:51:47.539Z,81.07
2019-02-21T21:54:19.309Z,81.12
2019-02-21T21:56:51.041Z,81.23
2019-02-21T21:59:22.493Z,81.12
2019-02-21T22:01:55.001Z,80.83
2019-02-21T22:04:26.815Z,80.71
2019-02-21T22:06:58.248Z,80.80
2019-02-21T22:09:29.745Z,80.84
2019-02-21T22:12:01.767Z,80.70
2019-02-21T22:14:33.662Z,80.65
2019-02-21T22:17:05.322Z,80.61
2019-02-21T22:19:36.733Z,80.46
2019-02-21T22:22:08.455Z,80.26
2019-02-21T22:24:40.387Z,80.19
2019-02-21T22:27:12.387Z,80.15
2019-02-21T22:29:43.902Z,80.06
2019-02-21T22:32:15.460Z,80.15
2019-02-21T22:34:47.004Z,80.01
2019-02-21T22:37:18.885Z,79.77
2019-02-21T22:39:51.825Z,79.75
2019-02-21T22:42:23.311Z,79.76
2019-02-21T22:44:54.733Z,80.06
2019-02-21T22:47:26.216Z,80.35
2019-02-21T22:49:57.863Z,80.54
2019-02-21T22:52:29.481Z,80.60
2019-02-21T22:55:09.339Z,80.79
2019-02-21T22:57:34.300Z,80.96
2019-02-21T23:00:36.822Z,81.84
2019-02-21T23:03:10.703Z,82.46
2019-02-21T23:06:07.603Z,83.20
2019-02-21T23:08:54.038Z,83.39
2019-02-21T23:11:26.685Z,83.36
2019-02-21T23:13:58.208Z,83.95
2019-02-21T23:16:29.828Z,84.66
2019-02-21T23:19:01.632Z,85.33
2019-02-21T23:21:33.237Z,86.32
2019-02-21T23:24:04.807Z,86.25
2019-02-21T23:26:36.279Z,86.58
2019-02-21T23:29:07.870Z,86.35
2019-02-21T23:31:39.456Z,86.51
2019-02-21T23:34:17.662Z,86.65
2019-02-21T23:36:49.526Z,86.76
2019-02-21T23:39:20.976Z,86.76
2019-02-21T23:41:52.464Z,86.29
2019-02-21T23:44:24.444Z,86.42
2019-02-21T23:46:55.968Z,86.37
2019-02-21T23:49:27.490Z,86.46
2019-02-21T23:51:59.380Z,86.28
2019-02-21T23:54:31.057Z,86.66
2019-02-21T23:57:02.749Z,86.59
2019-02-21T23:59:34.296Z,86.71
